Terminal Aerodrome Forecast
Issued by NWS Louisville, KY

Home | Current Version | Previous Version | Text Only | Print | Product List | Glossary On
Versions: 1 2 3 4 5 6 7 8 9 10 11 12 13
000
FTUS43 KLMK 220521
TAFLEX
TAF
KLEX 220521Z 2206/2306 31004KT 6SM BR SKC
      TEMPO 2206/2209 2SM BR
     FM220900 VRB04KT 3SM BR SKC
      TEMPO 2209/2213 2SM BR
     FM221500 33009G15KT P6SM SCT060
     FM230000 VRB05KT P6SM FEW050=

USA.gov is the U.S. government's official web portal to all federal, state and local government web resources and services.